Reno, NV

2:12 PM PDT on October 01, 2014 (GMT -0700)
MidTown | Change Station
CLOSE
Current Station
Personal Weather Station
Location: Reno, NV
Elevation: 4491 ft
Nearby Weather Stations
Active Advisory: Freeze Warning

Elev 4491 ft 39.52 °N, 119.81 °W | Updated 45 seconds ago

Clear
Clear
62.6 °F
Feels Like 62.6 °F
N
-
Wind Variable Wind from North

Today
High -- | Low -- °F
--% Chance of Precip.
Yesterday
High -- | Low -- °F
Precip. -- in
6:55 AM 6:41 PM
Waxing Crescent, 51% visible
Pressure 29.87 in
Visibility 10.0 miles
Clouds Scattered Clouds 5500 ft
Mostly Cloudy 25000 ft
Dew Point 33 °F
Humidity 33%
Rainfall 0.00 in
Snow Depth 0 in , 0 in , 0 in
UV 4 out of 12
Pollen 5.00 out of 12
Air Quality Not available.
Flu Activity Not available.
METAR KRNO 302055Z VRB04KT 10SM SCT055 BKN250 21/06 A2998 RMK AO2 SLP115 T02060056 56021 $

More Conditions Fewer Conditions

Pressure 29.87 in
Visibility 10.0 miles
Clouds Scattered Clouds 5500 ft
Mostly Cloudy 25000 ft
Dew Point 33 °F
Humidity 33%
Rainfall 0.00 in
Snow Depth 0 in , 0 in , 0 in
UV 4 out of 12
Pollen 5.00 out of 12
Air Quality Not available.
Flu Activity Not available.
METAR KRNO 302055Z VRB04KT 10SM SCT055 BKN250 21/06 A2998 RMK AO2 SLP115 T02060056 56021 $

More Conditions Fewer Conditions

10-Day Weather Forecast

Almanac

Astronomy

Oct. 01, 2014 Rise Set
Actual Time 6:55 AM PDT 6:41 PM PDT
Civil Twilight 6:28 AM PDT 7:08 PM PDT
Nautical Twilight 5:57 AM PDT 7:39 PM PDT
Astronomical Twilight 5:25 AM PDT 8:10 PM PDT
Moon 1:59 PM PDT No Moon Set
Length of Visible Light 12h 39m
Length of Day
11h 46m
Tomorrow will be 2m 33s shorter.
Waxing Crescent, 51% of the Moon is Illuminated
Today
Waxing Crescent
Oct 8
Full
Oct 15
Last Quarter
Oct 23
New
Oct 30
First Quarter

Today's Extremes

State Highs State Lows

Community

WunderPhotos

Upload Photos

1,758,058 photos uploaded!

WunderBlogs® & News

By Dr. Jeff Masters
Director of Meteorology, Weather Underground
By Kari Strenfel
Meteorologist, Weather Underground
By Christopher C. Burt
Weather Historian, Weather Underground
October 1, 2014
October 1, 2014
October 1, 2014

Nearby

Snow Depth

Station Depth Elevation
Green Mountain 0 in 8000 ft
Disaster Peak 0 in 6500 ft
Lewis Peak 0 in 7400 ft
Dorsey Basin 0 in 8100 ft
Jacks Peak 5 in 8420 ft

Earthquake Activity

City Distance Mag. Time & Date
No recent earthquake activity has been reported nearby.
Minimum magnitude displayed is 2.5.

Coastal Water Temperatures

Place Temperature
No Stations Reporting

Nearby Weather Stations